Time;durP1;ratioP1;P1;durP2;ratioP2;P2;SDS_P1;SDS_P2;PMS_P1;PMS_P2;Temp;Humidity;BMP_temperature;BMP_pressure;BME280_temperature;BME280_humidity;BME280_pressure;Samples;Min_cycle;Max_cycle;Signal;HPM_P1;HPM_P2
2021/04/11 00:01:07;;;;;;;5.83;2.70;;;9.90;99.80;;;;;;5097275;28;20035;-79
2021/04/11 00:03:33;;;;;;;6.47;2.43;;;9.90;99.30;;;;;;5114813;28;20027;-79
2021/04/11 00:05:58;;;;;;;5.40;2.37;;;9.90;98.80;;;;;;5100200;28;20557;-78
2021/04/11 00:08:25;;;;;;;5.40;2.57;;;9.90;98.90;;;;;;5109513;28;20036;-79
2021/04/11 00:10:54;;;;;;;4.73;2.80;;;9.90;98.00;;;;;;5110347;28;20077;-79
2021/04/11 00:13:25;;;;;;;4.30;2.30;;;9.90;97.70;;;;;;5094672;28;20032;-78
2021/04/11 00:15:50;;;;;;;5.37;2.43;;;9.90;97.50;;;;;;5098215;28;20087;-79
2021/04/11 00:18:16;;;;;;;6.50;2.70;;;9.80;97.20;;;;;;5101902;28;20032;-78
2021/04/11 00:20:42;;;;;;;6.33;2.67;;;9.90;96.80;;;;;;5112518;28;20038;-79
2021/04/11 00:23:09;;;;;;;5.73;2.60;;;10.00;96.20;;;;;;5097346;28;20535;-78
2021/04/11 00:25:39;;;;;;;4.37;2.57;;;10.00;95.80;;;;;;5082402;28;20069;-78
2021/04/11 00:28:09;;;;;;;4.73;2.30;;;10.00;95.20;;;;;;5081843;28;20031;-78
2021/04/11 00:30:37;;;;;;;5.47;2.63;;;10.10;94.50;;;;;;5105994;28;20035;-79
2021/04/11 00:33:05;;;;;;;6.23;2.90;;;10.10;94.40;;;;;;5112184;28;20051;-78
2021/04/11 00:35:31;;;;;;;4.50;2.93;;;10.20;94.10;;;;;;5112640;28;20036;-78
2021/04/11 00:37:57;;;;;;;6.27;2.50;;;10.20;94.00;;;;;;5112665;28;20420;-79
2021/04/11 00:40:25;;;;;;;7.33;2.70;;;10.20;93.70;;;;;;5109850;28;20027;-78
2021/04/11 00:43:03;;;;;;;5.80;2.37;;;10.30;93.30;;;;;;5090159;28;20058;-78
2021/04/11 00:45:35;;;;;;;5.37;3.50;;;10.20;93.30;;;;;;5112524;28;20464;-78
2021/04/11 00:48:02;;;;;;;7.80;3.10;;;10.10;94.80;;;;;;5112178;28;20023;-78
2021/04/11 00:50:28;;;;;;;7.43;3.30;;;9.90;95.60;;;;;;5112360;28;20440;-78
2021/04/11 00:52:54;;;;;;;5.17;2.90;;;9.80;96.60;;;;;;5105959;28;20042;-78
2021/04/11 00:55:24;;;;;;;5.57;2.93;;;9.60;97.70;;;;;;5086089;28;20364;-79
2021/04/11 00:57:50;;;;;;;4.83;3.20;;;9.30;98.30;;;;;;5094858;28;20389;-79
2021/04/11 01:00:16;;;;;;;8.33;3.00;;;9.20;99.30;;;;;;5088744;28;20039;-78
2021/04/11 01:02:43;;;;;;;5.70;2.90;;;9.00;99.90;;;;;;5111967;28;20035;-79
2021/04/11 01:05:22;;;;;;;4.70;3.10;;;8.90;99.90;;;;;;5103683;28;20028;-79
2021/04/11 01:07:49;;;;;;;4.10;2.70;;;8.80;99.90;;;;;;5088214;28;20038;-78
2021/04/11 01:10:19;;;;;;;5.97;2.87;;;8.60;99.90;;;;;;5108994;28;20035;-79
2021/04/11 01:12:46;;;;;;;5.53;2.80;;;8.60;99.90;;;;;;5083169;28;20128;-79
2021/04/11 01:15:24;;;;;;;8.57;3.07;;;8.50;99.90;;;;;;5091093;28;20043;-79
2021/04/11 01:17:50;;;;;;;5.13;2.80;;;8.40;99.90;;;;;;5073126;28;20348;-78
2021/04/11 01:20:17;;;;;;;6.33;3.13;;;8.40;99.90;;;;;;5091279;28;20028;-79
2021/04/11 01:23:07;;;;;;;4.87;2.97;;;8.30;99.90;;;;;;5067936;28;20040;-78
2021/04/11 01:25:35;;;;;;;4.13;2.87;;;8.20;99.90;;;;;;5063893;28;20407;-79
2021/04/11 01:28:14;;;;;;;5.40;2.50;;;8.10;99.90;;;;;;5072596;28;20173;-79
2021/04/11 01:30:42;;;;;;;4.43;2.40;;;8.10;99.90;;;;;;5072585;28;20044;-79
2021/04/11 01:33:17;;;;;;;5.90;2.87;;;8.10;99.90;;;;;;5091454;28;20096;-72
2021/04/11 01:35:44;;;;;;;5.72;3.60;;;8.00;99.90;;;;;;5093775;28;20028;-72
2021/04/11 01:38:11;;;;;;;3.43;2.73;;;8.00;99.90;;;;;;5075209;28;20025;-72
2021/04/11 01:40:51;;;;;;;5.37;2.50;;;8.00;99.90;;;;;;5093543;28;20024;-72
2021/04/11 01:43:17;;;;;;;7.30;2.80;;;8.00;99.90;;;;;;5093334;28;20043;-72
2021/04/11 01:45:44;;;;;;;5.63;3.13;;;7.90;99.90;;;;;;5075697;28;20035;-72
2021/04/11 01:48:11;;;;;;;5.90;2.67;;;7.80;99.90;;;;;;5093340;28;20031;-72
2021/04/11 01:50:38;;;;;;;5.33;3.07;;;7.80;99.90;;;;;;5075168;28;20024;-72
2021/04/11 01:53:05;;;;;;;4.67;2.90;;;7.70;99.90;;;;;;5093170;28;20499;-72
2021/04/11 01:55:31;;;;;;;4.13;3.07;;;7.70;99.90;;;;;;5092817;28;20468;-75
2021/04/11 01:57:57;;;;;;;4.73;2.97;;;7.60;99.90;;;;;;5091883;28;20027;-75
2021/04/11 02:00:35;;;;;;;5.20;2.90;;;7.50;99.90;;;;;;5089858;28;20020;-75
2021/04/11 02:03:04;;;;;;;8.47;2.83;;;7.50;99.90;;;;;;5091573;28;20077;-75
2021/04/11 02:05:30;;;;;;;4.17;3.00;;;7.50;99.90;;;;;;5091643;28;20070;-75
2021/04/11 02:07:57;;;;;;;4.77;2.90;;;7.50;99.90;;;;;;5088997;28;20051;-75
2021/04/11 02:10:29;;;;;;;5.43;3.07;;;7.40;99.90;;;;;;5091389;28;20020;-75
2021/04/11 02:12:56;;;;;;;7.60;2.80;;;7.40;99.90;;;;;;5092121;28;20024;-75
2021/04/11 02:15:26;;;;;;;3.80;2.47;;;7.40;99.90;;;;;;5091878;28;20081;-75
2021/04/11 02:17:53;;;;;;;6.97;2.93;;;7.40;99.90;;;;;;5090943;28;20027;-76
2021/04/11 02:20:21;;;;;;;6.10;2.60;;;7.40;99.90;;;;;;5092603;28;20456;-75
2021/04/11 02:22:47;;;;;;;6.50;2.67;;;7.40;99.90;;;;;;5092143;28;20028;-76
2021/04/11 02:25:18;;;;;;;6.77;2.97;;;7.40;99.90;;;;;;5091241;28;20349;-76
2021/04/11 02:27:43;;;;;;;6.57;2.77;;;7.40;99.90;;;;;;5091152;28;20048;-75
2021/04/11 02:30:13;;;;;;;7.47;2.80;;;7.40;99.90;;;;;;5091406;28;20063;-76
2021/04/11 02:32:39;;;;;;;6.27;3.20;;;7.40;99.90;;;;;;5090837;28;20044;-75
2021/04/11 02:35:08;;;;;;;3.97;2.57;;;7.40;99.90;;;;;;5091208;28;20027;-76
2021/04/11 02:37:36;;;;;;;4.87;2.63;;;7.40;99.90;;;;;;5091320;28;20024;-76
2021/04/11 02:40:08;;;;;;;4.27;2.70;;;7.40;99.90;;;;;;5092677;28;20031;-73
2021/04/11 02:42:35;;;;;;;5.80;2.57;;;7.40;99.90;;;;;;5092667;28;20032;-73
2021/04/11 02:45:05;;;;;;;4.73;2.83;;;7.30;99.90;;;;;;5092969;28;20036;-73
2021/04/11 02:47:31;;;;;;;4.97;2.73;;;7.30;99.90;;;;;;5092568;28;20028;-73
2021/04/11 02:49:58;;;;;;;6.17;2.80;;;7.30;99.90;;;;;;5092813;28;20111;-73
2021/04/11 02:52:30;;;;;;;6.40;2.97;;;7.20;99.90;;;;;;5092898;28;20476;-73
2021/04/11 02:54:57;;;;;;;7.93;2.77;;;7.20;99.90;;;;;;5074925;28;20058;-73
2021/04/11 02:57:24;;;;;;;8.13;2.60;;;7.10;99.90;;;;;;5092950;28;20345;-73
2021/04/11 02:59:59;;;;;;;5.00;2.33;;;7.10;99.90;;;;;;5092682;28;20027;-73
2021/04/11 03:02:24;;;;;;;5.65;2.70;;;7.00;99.90;;;;;;5092970;28;20039;-73
2021/04/11 03:04:54;;;;;;;5.50;2.83;;;7.00;99.90;;;;;;5092734;28;20036;-73
2021/04/11 03:07:45;;;;;;;4.70;3.00;;;7.00;99.90;;;;;;5092778;28;20112;-73
2021/04/11 03:10:20;;;;;;;4.73;3.00;;;6.90;99.90;;;;;;5078333;28;20074;-73
2021/04/11 03:12:47;;;;;;;;;;;6.90;99.90;;;;;;5092530;28;20034;-73
2021/04/11 03:15:14;;;;;;;5.60;3.00;;;6.90;99.90;;;;;;5074256;28;19998;-73
2021/04/11 03:17:41;;;;;;;4.30;2.80;;;6.90;99.90;;;;;;5092277;28;20020;-73
2021/04/11 03:20:17;;;;;;;5.57;2.77;;;6.80;99.90;;;;;;5092500;28;20012;-73
2021/04/11 03:22:43;;;;;;;4.80;2.63;;;6.80;99.90;;;;;;5092518;28;20028;-73
2021/04/11 03:25:11;;;;;;;5.70;3.10;;;6.80;99.90;;;;;;5092295;28;20376;-73
2021/04/11 03:27:40;;;;;;;5.13;3.23;;;6.80;99.90;;;;;;5092946;28;20035;-73
2021/04/11 03:30:32;;;;;;;6.93;3.00;;;6.70;99.90;;;;;;5095999;28;20364;-73
2021/04/11 03:33:11;;;;;;;7.07;2.97;;;6.70;99.90;;;;;;5087249;28;20040;-73
2021/04/11 03:35:39;;;;;;;6.00;3.20;;;6.70;99.90;;;;;;5096062;28;20016;-73
2021/04/11 03:38:07;;;;;;;6.03;3.10;;;6.60;99.90;;;;;;5096018;28;20039;-73
2021/04/11 03:40:38;;;;;;;4.27;2.53;;;6.60;99.90;;;;;;5096294;28;20453;-73
2021/04/11 03:43:11;;;;;;;5.70;2.63;;;6.50;99.90;;;;;;5096376;28;20050;-73
2021/04/11 03:45:37;;;;;;;7.47;2.80;;;6.50;99.90;;;;;;5077726;28;20024;-73
2021/04/11 03:48:25;;;;;;;6.57;2.90;;;6.50;99.90;;;;;;5095863;28;20425;-73
2021/04/11 03:50:58;;;;;;;7.73;2.93;;;6.50;99.90;;;;;;5096298;28;20078;-73
2021/04/11 03:53:33;;;;;;;4.87;3.30;;;6.50;99.90;;;;;;5095807;28;20354;-73
2021/04/11 03:56:03;;;;;;;9.43;2.85;;;6.50;99.90;;;;;;5095652;28;20016;-73
2021/04/11 03:58:34;;;;;;;5.27;2.80;;;6.50;99.90;;;;;;5095763;28;20028;-73
2021/04/11 04:01:07;;;;;;;10.73;3.40;;;6.50;99.90;;;;;;5095500;28;20104;-73
2021/04/11 04:03:35;;;;;;;7.80;3.17;;;6.50;99.90;;;;;;5095793;28;20468;-73
2021/04/11 04:06:13;;;;;;;5.27;2.90;;;6.50;99.90;;;;;;5095824;28;20036;-73
2021/04/11 04:08:38;;;;;;;4.47;2.70;;;6.50;99.90;;;;;;5095462;28;20107;-73
2021/04/11 04:11:48;;;;;;;5.47;2.93;;;6.50;99.90;;;;;;5077097;28;20024;-73
2021/04/11 04:14:50;;;;;;;5.43;2.80;;;6.50;99.90;;;;;;5074920;28;20024;-73
2021/04/11 04:17:54;;;;;;;4.10;2.57;;;6.40;99.90;;;;;;5075089;28;20499;-73
2021/04/11 04:20:42;;;;;;;4.83;2.80;;;6.40;99.90;;;;;;5073003;28;20426;-76
2021/04/11 04:23:41;;;;;;;5.03;3.07;;;6.40;99.90;;;;;;5074584;28;20028;-72
2021/04/11 04:26:40;;;;;;;4.27;2.57;;;6.30;99.90;;;;;;5090014;28;20042;-75
2021/04/11 04:29:06;;;;;;;7.20;2.53;;;6.30;99.90;;;;;;5102422;28;20417;-76
2021/04/11 04:31:49;;;;;;;6.73;2.80;;;6.30;99.90;;;;;;5089173;28;20146;-73
2021/04/11 04:34:27;;;;;;;5.30;2.70;;;6.30;99.90;;;;;;5094912;28;20044;-73
2021/04/11 04:37:17;;;;;;;5.57;2.73;;;6.30;99.90;;;;;;5095293;28;20027;-72
2021/04/11 04:39:59;;;;;;;5.17;2.97;;;6.30;99.90;;;;;;5075964;28;20028;-73
2021/04/11 04:42:31;;;;;;;4.73;3.00;;;6.30;99.90;;;;;;5094718;28;20069;-73
2021/04/11 04:45:01;;;;;;;6.37;2.70;;;6.30;99.90;;;;;;5095054;28;20043;-73
2021/04/11 04:47:46;;;;;;;7.43;2.70;;;6.30;99.90;;;;;;5094611;28;20024;-73
2021/04/11 04:50:23;;;;;;;5.10;2.73;;;6.30;99.90;;;;;;5094641;28;20067;-73
2021/04/11 04:53:05;;;;;;;4.33;2.73;;;6.40;99.90;;;;;;5094460;28;20036;-73
2021/04/11 04:55:35;;;;;;;5.30;2.97;;;6.40;99.90;;;;;;5094612;28;20048;-73
2021/04/11 04:58:11;;;;;;;5.27;2.70;;;6.40;99.90;;;;;;5094587;28;20026;-74
2021/04/11 05:00:40;;;;;;;3.40;2.80;;;6.50;99.90;;;;;;5076227;28;20028;-72
2021/04/11 05:03:15;;;;;;;5.77;2.83;;;6.60;99.90;;;;;;5094957;28;20112;-72
2021/04/11 05:05:46;;;;;;;6.47;3.00;;;6.60;99.90;;;;;;5095102;28;20028;-72
2021/04/11 05:08:22;;;;;;;5.87;2.73;;;6.70;99.90;;;;;;5094351;28;20031;-72
2021/04/11 05:11:06;;;;;;;4.63;2.60;;;6.70;99.90;;;;;;5095159;28;20024;-73
2021/04/11 05:13:37;;;;;;;3.70;2.40;;;6.80;99.90;;;;;;5096515;28;20056;-73
2021/04/11 05:16:03;;;;;;;3.10;2.50;;;6.80;99.90;;;;;;5096185;28;20035;-73
2021/04/11 05:18:47;;;;;;;4.37;2.70;;;6.90;99.90;;;;;;5095110;28;20043;-73
2021/04/11 05:21:18;;;;;;;3.87;2.73;;;6.90;99.90;;;;;;5097272;28;20103;-74
2021/04/11 05:23:52;;;;;;;4.00;2.57;;;7.10;99.90;;;;;;5094657;28;20047;-74
2021/04/11 05:26:39;;;;;;;4.65;2.97;;;7.10;99.90;;;;;;5094350;28;20020;-74
2021/04/11 05:29:31;;;;;;;6.20;2.80;;;7.20;99.90;;;;;;5094212;28;20132;-74
2021/04/11 05:31:57;;;;;;;5.90;3.00;;;7.20;99.90;;;;;;5094356;28;20079;-74
2021/04/11 05:34:25;;;;;;;8.03;3.37;;;7.30;99.90;;;;;;5094295;28;20059;-74
2021/04/11 05:37:26;;;;;;;7.43;3.83;;;7.40;99.90;;;;;;5093914;28;20024;-74
2021/04/11 05:40:16;;;;;;;8.57;3.50;;;7.50;99.90;;;;;;5058782;28;20044;-74
2021/04/11 05:43:04;;;;;;;6.27;2.67;;;7.50;99.90;;;;;;5094220;28;20111;-74
2021/04/11 05:45:46;;;;;;;7.13;2.97;;;7.60;99.90;;;;;;5093798;28;20107;-74
2021/04/11 05:48:23;;;;;;;6.57;3.07;;;7.70;99.90;;;;;;5094048;28;20035;-74
2021/04/11 05:51:01;;;;;;;4.60;2.80;;;7.80;99.90;;;;;;5093662;28;20096;-73
2021/04/11 05:53:41;;;;;;;7.17;3.07;;;7.80;99.90;;;;;;5093788;28;20024;-74
2021/04/11 05:56:19;;;;;;;3.80;2.30;;;7.90;99.90;;;;;;5092312;28;20174;-74
2021/04/11 05:58:50;;;;;;;6.83;2.50;;;8.00;99.90;;;;;;5093732;28;20465;-73
2021/04/11 06:01:21;;;;;;;5.07;2.97;;;8.00;99.90;;;;;;5093779;28;20107;-74
2021/04/11 06:04:06;;;;;;;5.50;2.80;;;8.00;99.90;;;;;;5093708;28;20036;-73
2021/04/11 06:06:58;;;;;;;5.40;3.40;;;8.00;99.90;;;;;;5093628;28;20532;-73
2021/04/11 06:09:34;;;;;;;5.07;3.33;;;8.00;99.90;;;;;;5093604;28;20028;-73
2021/04/11 06:12:22;;;;;;;6.63;3.00;;;8.10;99.90;;;;;;5093612;28;20051;-73
2021/04/11 06:15:08;;;;;;;7.67;3.37;;;8.10;99.90;;;;;;5093316;28;20036;-73
2021/04/11 06:17:34;;;;;;;6.77;3.37;;;8.20;99.90;;;;;;5093522;28;20475;-72
2021/04/11 06:20:00;;;;;;;4.20;2.90;;;8.20;99.90;;;;;;5093422;28;20036;-73
2021/04/11 06:23:04;;;;;;;6.97;3.33;;;8.30;99.90;;;;;;5093203;28;20034;-73
2021/04/11 06:25:42;;;;;;;4.97;3.07;;;8.30;99.90;;;;;;5093351;28;20028;-72
2021/04/11 06:28:12;;;;;;;7.43;3.30;;;8.40;99.90;;;;;;5093294;28;20078;-72
2021/04/11 06:30:47;;;;;;;5.90;2.80;;;8.40;99.90;;;;;;5092953;28;20096;-72
2021/04/11 06:33:44;;;;;;;5.15;3.00;;;8.50;99.90;;;;;;5092742;28;20044;-72
2021/04/11 06:36:14;;;;;;;6.30;3.30;;;8.50;99.90;;;;;;5087224;28;20032;-72
2021/04/11 06:38:44;;;;;;;4.30;3.10;;;8.70;99.90;;;;;;5091597;28;20046;-72
2021/04/11 06:41:52;;;;;;;5.57;3.20;;;8.80;99.90;;;;;;5092777;28;20029;-72
2021/04/11 06:44:36;;;;;;;5.57;3.23;;;8.90;99.90;;;;;;5073248;28;20041;-72
2021/04/11 06:47:17;;;;;;;8.93;2.70;;;9.20;99.90;;;;;;5092760;28;20040;-72
2021/04/11 06:50:22;;;;;;;4.70;2.90;;;9.40;99.90;;;;;;5091364;28;20169;-72
2021/04/11 06:53:20;;;;;;;4.17;3.03;;;9.80;99.90;;;;;;5093189;28;20024;-72
2021/04/11 06:55:57;;;;;;;7.13;2.87;;;10.00;99.90;;;;;;5084294;28;20103;-71
2021/04/11 06:58:45;;;;;;;4.07;2.70;;;10.20;99.90;;;;;;5092916;28;20322;-72
2021/04/11 07:01:33;;;;;;;12.03;7.30;;;10.40;99.90;;;;;;5092791;28;20099;-72
2021/04/11 07:04:29;;;;;;;8.70;3.90;;;10.70;99.90;;;;;;5096130;28;20055;-72
2021/04/11 07:07:26;;;;;;;6.40;3.70;;;10.90;99.90;;;;;;5096744;28;20028;-72
2021/04/11 07:10:17;;;;;;;9.07;3.47;;;11.10;99.90;;;;;;5096968;28;20433;-72
2021/04/11 07:13:16;;;;;;;7.67;3.30;;;11.20;99.90;;;;;;5096311;28;20067;-73
2021/04/11 07:16:09;;;;;;;7.93;3.40;;;11.30;99.90;;;;;;5096613;28;20024;-73
2021/04/11 07:18:53;;;;;;;5.78;3.20;;;11.40;99.90;;;;;;5084573;28;20035;-72
2021/04/11 07:21:40;;;;;;;6.23;3.30;;;11.50;99.90;;;;;;5079529;28;20020;-67
2021/04/11 07:24:21;;;;;;;8.80;3.17;;;11.80;99.90;;;;;;5092981;28;20059;-66
2021/04/11 07:27:00;;;;;;;5.50;2.88;;;12.00;99.90;;;;;;5094736;28;20119;-72
2021/04/11 07:29:29;;;;;;;7.30;3.53;;;12.20;99.90;;;;;;5094872;28;20070;-69
2021/04/11 07:32:25;;;;;;;5.15;2.90;;;12.40;99.90;;;;;;5092790;28;20081;-68
2021/04/11 07:35:11;;;;;;;5.93;3.22;;;12.60;99.90;;;;;;5092629;28;20060;-68
2021/04/11 07:37:58;;;;;;;7.07;3.58;;;12.70;99.90;;;;;;5092606;28;20107;-68
2021/04/11 07:40:50;;;;;;;6.13;3.28;;;12.80;99.90;;;;;;5066418;28;20024;-68
2021/04/11 07:43:42;;;;;;;6.15;2.55;;;12.90;99.90;;;;;;5093236;28;20020;-68
2021/04/11 07:46:08;;;;;;;7.05;3.50;;;13.00;99.90;;;;;;5094214;28;20032;-70
2021/04/11 07:49:10;;;;;;;6.95;3.60;;;13.10;99.90;;;;;;5092813;28;20065;-68
2021/04/11 07:51:51;;;;;;;3.50;2.53;;;13.10;99.90;;;;;;5091961;28;20052;-67
2021/04/11 07:54:55;;;;;;;4.75;2.55;;;13.20;99.60;;;;;;5087112;28;20070;-68
2021/04/11 07:57:46;;;;;;;5.22;2.58;;;13.30;96.70;;;;;;5055178;28;20084;-69
2021/04/11 08:00:39;;;;;;;9.85;3.38;;;13.40;96.60;;;;;;5090330;28;20016;-70
2021/04/11 08:03:20;;;;;;;5.95;2.53;;;13.50;95.30;;;;;;5085292;28;20028;-68
2021/04/11 08:06:38;;;;;;;6.60;2.53;;;13.50;95.80;;;;;;5083655;28;20028;-69
2021/04/11 08:09:18;;;;;;;4.97;2.63;;;13.50;95.10;;;;;;5087466;28;20028;-70
2021/04/11 08:12:02;;;;;;;5.28;2.20;;;13.50;94.60;;;;;;5086679;28;20111;-71
2021/04/11 08:14:48;;;;;;;105.45;66.70;;;13.60;94.60;;;;;;5092278;28;20369;-69
2021/04/11 08:17:39;;;;;;;17.27;10.60;;;13.70;92.90;;;;;;5080820;28;20020;-68
2021/04/11 08:20:07;;;;;;;11.38;3.03;;;13.80;92.40;;;;;;5090279;28;20035;-70
2021/04/11 08:23:02;;;;;;;5.80;2.63;;;13.80;92.50;;;;;;5091577;28;20017;-70
2021/04/11 08:25:53;;;;;;;5.20;2.58;;;13.90;92.70;;;;;;5045127;28;20029;-69
2021/04/11 08:28:24;;;;;;;4.85;2.67;;;14.00;92.20;;;;;;5087301;28;20046;-70
2021/04/11 08:31:06;;;;;;;3.95;2.58;;;14.10;91.20;;;;;;5094781;28;20031;-69
2021/04/11 08:33:58;;;;;;;3.67;2.50;;;14.20;90.80;;;;;;5093963;28;20052;-70
2021/04/11 08:36:24;;;;;;;6.45;2.67;;;14.20;91.20;;;;;;5045295;28;20040;-69
2021/04/11 08:39:32;;;;;;;3.95;2.47;;;14.30;90.90;;;;;;5092642;28;20034;-70
2021/04/11 08:42:14;;;;;;;6.75;2.88;;;14.30;88.00;;;;;;5051051;28;20089;-70
2021/04/11 08:44:53;;;;;;;3.72;2.40;;;14.40;86.90;;;;;;5092087;28;20016;-70
2021/04/11 08:47:43;;;;;;;5.55;2.58;;;14.60;86.10;;;;;;5090860;28;20032;-70
2021/04/11 08:50:38;;;;;;;5.97;2.28;;;14.80;84.80;;;;;;5091732;28;20012;-69
2021/04/11 08:53:12;;;;;;;6.05;2.10;;;14.90;85.40;;;;;;5091587;28;20031;-69
2021/04/11 08:56:05;;;;;;;4.47;2.20;;;15.20;83.80;;;;;;5080472;28;20406;-69
2021/04/11 08:58:49;;;;;;;3.53;2.30;;;15.40;81.00;;;;;;5092018;28;20028;-70
2021/04/11 09:01:56;;;;;;;3.33;2.20;;;15.50;80.60;;;;;;5089380;28;20360;-70
2021/04/11 09:04:42;;;;;;;3.67;2.03;;;15.60;79.70;;;;;;5082216;28;20754;-70
2021/04/11 09:07:40;;;;;;;4.68;1.95;;;15.70;77.00;;;;;;5091361;28;20031;-70
2021/04/11 09:10:36;;;;;;;6.45;2.10;;;15.80;77.60;;;;;;5091402;28;20384;-70
2021/04/11 09:13:11;;;;;;;2.97;1.83;;;15.90;74.80;;;;;;5091690;28;20028;-70
2021/04/11 09:15:54;;;;;;;3.60;1.75;;;16.00;76.20;;;;;;5091480;28;20024;-70
2021/04/11 09:18:38;;;;;;;3.65;2.13;;;16.20;76.20;;;;;;5091515;28;20457;-75
2021/04/11 09:21:17;;;;;;;8.60;2.13;;;16.20;72.40;;;;;;5089519;28;20012;-69
2021/04/11 09:24:00;;;;;;;3.50;2.10;;;16.40;74.70;;;;;;5091599;28;20064;-70
2021/04/11 09:26:57;;;;;;;7.20;2.40;;;16.60;73.10;;;;;;5091139;28;20065;-76
2021/04/11 09:29:43;;;;;;;6.43;1.90;;;16.70;72.20;;;;;;5091116;28;20032;-68
2021/04/11 09:32:38;;;;;;;2.85;1.80;;;17.00;71.90;;;;;;5085066;28;20036;-67
2021/04/11 09:35:22;;;;;;;6.10;2.40;;;17.10;73.90;;;;;;5082375;28;20036;-67
2021/04/11 09:38:12;;;;;;;3.45;2.03;;;17.30;71.20;;;;;;5090969;28;20024;-68
2021/04/11 09:41:15;;;;;;;3.05;1.60;;;17.70;69.10;;;;;;5091244;28;20103;-78
2021/04/11 09:44:14;;;;;;;3.25;1.60;;;17.90;68.20;;;;;;5079449;28;20110;-65
2021/04/11 09:47:10;;;;;;;4.00;1.90;;;18.10;69.30;;;;;;5091519;28;20016;-65
2021/04/11 09:50:07;;;;;;;5.03;2.08;;;18.20;67.90;;;;;;5091391;28;20024;-65
2021/04/11 09:53:09;;;;;;;3.10;1.83;;;18.30;66.40;;;;;;5091602;28;20434;-73
2021/04/11 09:55:40;;;;;;;3.58;1.70;;;18.80;66.50;;;;;;5094207;28;20077;-74
2021/04/11 09:58:18;;;;;;;4.15;1.70;;;18.70;64.60;;;;;;5093862;28;20020;-75
2021/04/11 10:01:13;;;;;;;3.35;1.33;;;19.10;63.50;;;;;;5093689;28;20412;-75
2021/04/11 10:04:07;;;;;;;3.00;1.60;;;19.20;60.20;;;;;;5055809;28;20036;-75
2021/04/11 10:06:45;;;;;;;4.35;1.60;;;19.40;59.80;;;;;;5064262;28;20484;-75
2021/04/11 10:09:44;;;;;;;5.13;1.42;;;19.70;58.60;;;;;;5094677;28;20016;-75
2021/04/11 10:12:28;;;;;;;2.05;1.48;;;20.00;57.70;;;;;;5094762;28;20466;-74
2021/04/11 10:15:18;;;;;;;4.10;2.00;;;20.20;56.40;;;;;;5093762;28;20028;-75
2021/04/11 10:18:02;;;;;;;3.22;1.38;;;20.40;56.40;;;;;;5075617;28;20362;-75
2021/04/11 10:20:50;;;;;;;8.85;4.22;;;20.40;56.20;;;;;;5093553;28;20035;-75
2021/04/11 10:23:36;;;;;;;4.75;3.35;;;20.30;57.60;;;;;;5081764;28;20056;-76
2021/04/11 10:26:12;;;;;;;1.83;1.30;;;20.60;57.30;;;;;;5093518;28;20024;-76
2021/04/11 10:28:51;;;;;;;2.13;1.23;;;20.90;54.00;;;;;;5075202;28;20452;-76
2021/04/11 10:31:37;;;;;;;3.60;1.50;;;21.00;53.20;;;;;;5093460;28;20410;-74
2021/04/11 10:34:29;;;;;;;24.50;17.73;;;21.20;54.10;;;;;;5093526;28;20036;-73
2021/04/11 10:37:01;;;;;;;2.30;1.70;;;21.10;52.80;;;;;;5093355;28;20085;-73
2021/04/11 10:40:00;;;;;;;4.07;3.25;;;21.00;52.70;;;;;;5093275;28;20043;-73
2021/04/11 10:42:48;;;;;;;1.48;1.10;;;21.20;53.30;;;;;;5092983;28;20072;-73
2021/04/11 10:45:37;;;;;;;3.28;1.20;;;21.30;53.00;;;;;;5090055;28;20024;-77
2021/04/11 10:48:21;;;;;;;3.50;2.40;;;21.60;51.20;;;;;;5090216;28;20078;-77
2021/04/11 10:50:59;;;;;;;3.13;1.97;;;21.50;52.20;;;;;;5090158;28;20027;-77
2021/04/11 10:54:08;;;;;;;2.10;1.30;;;21.50;52.40;;;;;;5090080;28;20021;-76
2021/04/11 10:56:45;;;;;;;2.33;1.60;;;21.60;50.50;;;;;;5073737;28;20388;-77
2021/04/11 10:59:21;;;;;;;2.85;2.05;;;21.60;54.10;;;;;;5090069;28;20453;-77
2021/04/11 11:02:05;;;;;;;15.15;14.05;;;21.50;50.50;;;;;;5089952;28;20066;-77
2021/04/11 11:04:49;;;;;;;15.13;14.02;;;21.40;51.30;;;;;;5089835;28;20107;-77
2021/04/11 11:07:36;;;;;;;3.50;1.35;;;21.40;50.80;;;;;;5090062;28;20025;-76
2021/04/11 11:10:18;;;;;;;2.45;1.30;;;21.60;50.90;;;;;;5078999;28;20024;-77
2021/04/11 11:13:14;;;;;;;3.75;3.20;;;21.80;53.00;;;;;;5089462;28;20035;-77
2021/04/11 11:16:14;;;;;;;1.65;1.20;;;21.60;52.20;;;;;;5089783;28;20020;-77
2021/04/11 11:19:08;;;;;;;3.50;1.30;;;21.40;52.00;;;;;;5079716;28;20024;-77
2021/04/11 11:22:27;;;;;;;1.65;1.10;;;21.10;52.70;;;;;;5078294;28;20020;-77
2021/04/11 11:24:52;;;;;;;2.13;1.10;;;21.10;52.40;;;;;;4988037;28;20034;-77
2021/04/11 11:27:39;;;;;;;3.63;1.90;;;20.90;51.50;;;;;;5081417;28;20035;-77
2021/04/11 11:30:19;;;;;;;2.72;1.25;;;20.90;52.20;;;;;;5091702;28;20035;-73
2021/04/11 11:32:54;;;;;;;3.25;1.00;;;21.00;50.90;;;;;;5092257;28;20051;-73
2021/04/11 11:35:19;;;;;;;2.40;1.00;;;20.90;52.10;;;;;;5092427;28;20012;-73
2021/04/11 11:37:57;;;;;;;2.13;1.30;;;21.00;51.40;;;;;;5092586;28;20423;-73
2021/04/11 11:40:35;;;;;;;2.90;1.00;;;21.10;52.50;;;;;;5092493;28;20024;-74
2021/04/11 11:43:00;;;;;;;2.92;1.13;;;21.00;51.70;;;;;;5106864;28;20086;-73
2021/04/11 11:45:40;;;;;;;1.35;0.90;;;20.80;51.20;;;;;;5101193;28;20063;-73
2021/04/11 11:48:30;;;;;;;2.30;1.10;;;20.60;52.10;;;;;;5104452;28;20028;-73
2021/04/11 11:51:33;;;;;;;2.63;1.10;;;20.60;52.10;;;;;;5096208;28;20460;-73
2021/04/11 11:54:23;;;;;;;1.52;1.00;;;20.50;52.10;;;;;;5084818;28;20024;-73
2021/04/11 11:56:51;;;;;;;2.97;1.08;;;20.40;52.10;;;;;;5096108;28;20023;-73
2021/04/11 11:59:31;;;;;;;1.95;1.10;;;20.30;52.50;;;;;;5095938;28;20020;-73
2021/04/11 12:02:28;;;;;;;3.22;0.93;;;20.20;53.70;;;;;;5095846;28;20375;-75
2021/04/11 12:05:12;;;;;;;2.20;1.00;;;20.00;52.60;;;;;;5095853;28;20028;-73
2021/04/11 12:07:53;;;;;;;1.42;1.00;;;20.00;55.60;;;;;;5082335;28;20024;-76
2021/04/11 12:10:32;;;;;;;4.07;1.15;;;20.10;54.00;;;;;;5106519;28;20024;-75
2021/04/11 12:13:00;;;;;;;1.83;1.00;;;20.10;54.30;;;;;;5092559;28;20062;-70
2021/04/11 12:15:31;;;;;;;1.08;0.88;;;20.10;53.40;;;;;;5075821;28;20104;-72
2021/04/11 12:18:16;;;;;;;1.98;1.20;;;20.10;54.00;;;;;;5097270;28;20028;-68
2021/04/11 12:20:54;;;;;;;2.90;0.98;;;20.10;53.90;;;;;;5107023;28;20031;-70
2021/04/11 12:23:31;;;;;;;4.65;1.25;;;20.00;53.60;;;;;;5093041;28;20024;-68
2021/04/11 12:26:14;;;;;;;3.17;1.02;;;20.10;54.10;;;;;;5096816;28;20028;-68
2021/04/11 12:28:41;;;;;;;1.30;0.85;;;20.10;54.20;;;;;;5103906;28;20039;-69
2021/04/11 12:31:29;;;;;;;1.63;1.05;;;20.10;54.40;;;;;;5098547;28;20030;-68
2021/04/11 12:34:02;;;;;;;4.15;0.95;;;20.00;54.70;;;;;;5101112;28;20044;-68
2021/04/11 12:36:28;;;;;;;1.92;1.00;;;19.90;54.70;;;;;;5092881;28;20028;-69
2021/04/11 12:39:02;;;;;;;3.40;0.93;;;19.80;54.40;;;;;;5082914;28;20758;-67
2021/04/11 12:41:51;;;;;;;1.85;0.90;;;19.80;56.20;;;;;;5080091;28;20024;-69
2021/04/11 12:44:42;;;;;;;2.30;1.00;;;19.70;56.40;;;;;;5093023;28;20472;-68
2021/04/11 12:47:19;;;;;;;2.67;1.38;;;19.70;55.30;;;;;;5082910;28;20024;-68
2021/04/11 12:50:24;;;;;;;6.18;1.20;;;19.80;57.00;;;;;;5093853;28;20059;-68
2021/04/11 12:53:10;;;;;;;2.25;1.30;;;19.80;56.40;;;;;;5075295;28;20489;-70
2021/04/11 12:55:50;;;;;;;3.00;1.10;;;20.00;56.50;;;;;;5081363;28;20026;-68
2021/04/11 12:58:23;;;;;;;2.08;1.23;;;20.10;56.30;;;;;;5093973;28;20024;-66
2021/04/11 13:01:09;;;;;;;2.10;1.30;;;20.30;55.60;;;;;;5092959;28;20031;-68
2021/04/11 13:03:52;;;;;;;1.88;1.20;;;20.50;55.80;;;;;;5093227;28;20054;-68
2021/04/11 13:06:43;;;;;;;3.88;1.67;;;20.70;55.00;;;;;;5104507;28;20028;-70
2021/04/11 13:09:13;;;;;;;2.80;1.70;;;20.90;54.40;;;;;;5076390;28;20055;-70
2021/04/11 13:11:46;;;;;;;4.07;1.77;;;21.00;54.50;;;;;;5072367;28;20024;-68
2021/04/11 13:14:40;;;;;;;3.58;1.55;;;21.10;54.00;;;;;;5093354;28;20028;-69
2021/04/11 13:17:20;;;;;;;2.20;1.48;;;21.20;53.60;;;;;;5088215;28;20403;-68
2021/04/11 13:20:01;;;;;;;1.92;1.33;;;21.50;54.00;;;;;;5088941;28;20025;-67
2021/04/11 13:22:31;;;;;;;3.10;1.30;;;21.80;54.70;;;;;;5087875;28;20473;-68
2021/04/11 13:25:28;;;;;;;2.88;1.80;;;21.90;52.30;;;;;;5073357;28;20630;-67
2021/04/11 13:28:19;;;;;;;2.10;1.35;;;21.70;50.80;;;;;;5087656;28;20032;-68
2021/04/11 13:31:10;;;;;;;3.08;1.40;;;21.70;53.20;;;;;;5086077;28;20024;-69
2021/04/11 13:34:07;;;;;;;4.32;1.42;;;21.50;50.90;;;;;;5089917;28;20139;-68
2021/04/11 13:36:40;;;;;;;3.65;1.50;;;21.40;53.00;;;;;;5085599;28;20399;-68
2021/04/11 13:39:26;;;;;;;3.92;1.33;;;21.50;51.50;;;;;;5091067;28;20028;-69
2021/04/11 13:41:59;;;;;;;2.33;1.30;;;21.30;51.50;;;;;;5087812;28;20091;-69
2021/04/11 13:44:31;;;;;;;1.40;1.13;;;20.90;51.30;;;;;;5087371;28;20033;-69
2021/04/11 13:47:09;;;;;;;2.33;1.40;;;20.70;53.50;;;;;;5091344;28;20361;-70
2021/04/11 13:49:44;;;;;;;2.30;1.30;;;20.60;54.20;;;;;;5091212;28;20039;-69
2021/04/11 13:52:20;;;;;;;2.95;1.42;;;20.90;55.40;;;;;;5091472;28;20016;-69
2021/04/11 13:55:04;;;;;;;2.45;1.20;;;21.00;54.40;;;;;;5090846;28;20483;-70